sensor_id;sensor_type;location;lat;lon;timestamp;pressure;altitude;pressure_sealevel;temperature;humidity
46223;BME280;31943;51.410;7.564;2023-05-20T00:00:51;100969.09;;;11.68;58.05
46223;BME280;31943;51.410;7.564;2023-05-20T00:03:17;100966.41;;;11.65;58.25
46223;BME280;31943;51.410;7.564;2023-05-20T00:05:43;100971.59;;;11.64;58.03
46223;BME280;31943;51.410;7.564;2023-05-20T00:08:09;100961.97;;;11.61;58.23
46223;BME280;31943;51.410;7.564;2023-05-20T00:10:36;100965.41;;;11.57;58.43
46223;BME280;31943;51.410;7.564;2023-05-20T00:13:01;100965.38;;;11.56;57.96
46223;BME280;31943;51.410;7.564;2023-05-20T00:15:27;100972.34;;;11.55;58.18
46223;BME280;31943;51.410;7.564;2023-05-20T00:17:53;100968.84;;;11.55;58.37
46223;BME280;31943;51.410;7.564;2023-05-20T00:20:19;100965.34;;;11.54;58.10
46223;BME280;31943;51.410;7.564;2023-05-20T00:22:45;100971.38;;;11.50;58.25
46223;BME280;31943;51.410;7.564;2023-05-20T00:25:10;100969.53;;;11.46;58.63
46223;BME280;31943;51.410;7.564;2023-05-20T00:27:38;100970.38;;;11.43;58.65
46223;BME280;31943;51.410;7.564;2023-05-20T00:30:04;100973.84;;;11.41;58.65
46223;BME280;31943;51.410;7.564;2023-05-20T00:32:30;100974.69;;;11.41;58.90
46223;BME280;31943;51.410;7.564;2023-05-20T00:34:56;100975.56;;;11.42;58.61
46223;BME280;31943;51.410;7.564;2023-05-20T00:37:22;100970.31;;;11.39;58.95
46223;BME280;31943;51.410;7.564;2023-05-20T00:39:47;100968.50;;;11.36;58.93
46223;BME280;31943;51.410;7.564;2023-05-20T00:42:18;100974.50;;;11.31;58.87
46223;BME280;31943;51.410;7.564;2023-05-20T00:44:46;100976.16;;;11.25;58.73
46223;BME280;31943;51.410;7.564;2023-05-20T00:47:12;100967.44;;;11.26;58.78
46223;BME280;31943;51.410;7.564;2023-05-20T00:49:37;100967.47;;;11.28;58.98
46223;BME280;31943;51.410;7.564;2023-05-20T00:52:04;100964.91;;;11.30;58.78
46223;BME280;31943;51.410;7.564;2023-05-20T00:54:30;100961.31;;;11.24;58.57
46223;BME280;31943;51.410;7.564;2023-05-20T00:56:56;100962.16;;;11.22;58.60
46223;BME280;31943;51.410;7.564;2023-05-20T00:59:23;100965.59;;;11.21;58.26
46223;BME280;31943;51.410;7.564;2023-05-20T01:01:51;100958.53;;;11.15;58.38
46223;BME280;31943;51.410;7.564;2023-05-20T01:04:16;100962.03;;;11.16;58.41
46223;BME280;31943;51.410;7.564;2023-05-20T01:06:42;100955.91;;;11.14;58.52
46223;BME280;31943;51.410;7.564;2023-05-20T01:09:08;100949.75;;;11.10;58.70
46223;BME280;31943;51.410;7.564;2023-05-20T01:11:36;100952.28;;;11.05;58.63
46223;BME280;31943;51.410;7.564;2023-05-20T01:14:07;100952.16;;;11.01;58.90
46223;BME280;31943;51.410;7.564;2023-05-20T01:16:34;100953.88;;;10.99;58.72
46223;BME280;31943;51.410;7.564;2023-05-20T01:19:05;100951.22;;;10.96;59.55
46223;BME280;31943;51.410;7.564;2023-05-20T01:21:37;100949.31;;;10.88;59.33
46223;BME280;31943;51.410;7.564;2023-05-20T01:24:05;100946.66;;;10.87;59.87
46223;BME280;31943;51.410;7.564;2023-05-20T01:26:31;100951.03;;;10.86;59.83
46223;BME280;31943;51.410;7.564;2023-05-20T01:28:57;100948.38;;;10.85;59.62
46223;BME280;31943;51.410;7.564;2023-05-20T01:31:25;100949.25;;;10.84;59.60
46223;BME280;31943;51.410;7.564;2023-05-20T01:33:55;100938.72;;;10.81;59.31
46223;BME280;31943;51.410;7.564;2023-05-20T01:36:21;100942.16;;;10.80;59.57
46223;BME280;31943;51.410;7.564;2023-05-20T01:38:48;100934.25;;;10.75;59.50
46223;BME280;31943;51.410;7.564;2023-05-20T01:41:17;100940.34;;;10.74;59.40
46223;BME280;31943;51.410;7.564;2023-05-20T01:43:43;100939.38;;;10.71;59.42
46223;BME280;31943;51.410;7.564;2023-05-20T01:46:09;100937.53;;;10.65;59.59
46223;BME280;31943;51.410;7.564;2023-05-20T01:48:35;100935.75;;;10.64;59.67
46223;BME280;31943;51.410;7.564;2023-05-20T01:51:00;100934.84;;;10.62;59.78
46223;BME280;31943;51.410;7.564;2023-05-20T01:53:26;100930.50;;;10.61;59.93
46223;BME280;31943;51.410;7.564;2023-05-20T01:55:52;100933.06;;;10.59;59.65
46223;BME280;31943;51.410;7.564;2023-05-20T01:58:20;100930.38;;;10.55;59.84
46223;BME280;31943;51.410;7.564;2023-05-20T02:00:47;100925.94;;;10.52;60.16
46223;BME280;31943;51.410;7.564;2023-05-20T02:03:12;100922.38;;;10.48;60.25
46223;BME280;31943;51.410;7.564;2023-05-20T02:05:38;100919.75;;;10.47;59.93
46223;BME280;31943;51.410;7.564;2023-05-20T02:08:04;100924.06;;;10.45;59.96
46223;BME280;31943;51.410;7.564;2023-05-20T02:10:30;100916.19;;;10.43;60.18
46223;BME280;31943;51.410;7.564;2023-05-20T02:12:57;100920.56;;;10.44;60.22
46223;BME280;31943;51.410;7.564;2023-05-20T02:15:25;100923.22;;;10.46;60.07
46223;BME280;31943;51.410;7.564;2023-05-20T02:17:50;100926.59;;;10.42;59.83
46223;BME280;31943;51.410;7.564;2023-05-20T02:20:16;100921.34;;;10.40;60.12
46223;BME280;31943;51.410;7.564;2023-05-20T02:22:41;100932.59;;;10.38;60.03
46223;BME280;31943;51.410;7.564;2023-05-20T02:25:08;100929.09;;;10.36;60.37
46223;BME280;31943;51.410;7.564;2023-05-20T02:27:33;100936.09;;;10.38;60.34
46223;BME280;31943;51.410;7.564;2023-05-20T02:29:59;100941.25;;;10.37;60.39
46223;BME280;31943;51.410;7.564;2023-05-20T02:32:26;100928.22;;;10.35;60.45
46223;BME280;31943;51.410;7.564;2023-05-20T02:34:52;100939.50;;;10.36;60.29
46223;BME280;31943;51.410;7.564;2023-05-20T02:37:17;100939.50;;;10.36;60.24
46223;BME280;31943;51.410;7.564;2023-05-20T02:39:43;100930.81;;;10.35;60.06
46223;BME280;31943;51.410;7.564;2023-05-20T02:42:08;100936.81;;;10.33;60.08
46223;BME280;31943;51.410;7.564;2023-05-20T02:44:34;100931.53;;;10.29;60.13
46223;BME280;31943;51.410;7.564;2023-05-20T02:47:00;100935.78;;;10.26;60.42
46223;BME280;31943;51.410;7.564;2023-05-20T02:49:26;100934.88;;;10.24;60.08
46223;BME280;31943;51.410;7.564;2023-05-20T02:51:52;100933.91;;;10.20;60.19
46223;BME280;31943;51.410;7.564;2023-05-20T02:54:18;100939.97;;;10.18;60.74
46223;BME280;31943;51.410;7.564;2023-05-20T02:56:43;100947.75;;;10.16;60.30
46223;BME280;31943;51.410;7.564;2023-05-20T02:59:09;100937.22;;;10.13;61.00
46223;BME280;31943;51.410;7.564;2023-05-20T03:01:34;100939.03;;;10.16;60.97
46223;BME280;31943;51.410;7.564;2023-05-20T03:04:01;100935.53;;;10.15;60.47
46223;BME280;31943;51.410;7.564;2023-05-20T03:06:31;100945.13;;;10.16;60.70
46223;BME280;31943;51.410;7.564;2023-05-20T03:08:57;100934.66;;;10.15;60.92
46223;BME280;31943;51.410;7.564;2023-05-20T03:11:23;100931.22;;;10.17;60.77
46223;BME280;31943;51.410;7.564;2023-05-20T03:13:49;100930.41;;;10.18;60.37
46223;BME280;31943;51.410;7.564;2023-05-20T03:16:14;100933.00;;;10.18;60.40
46223;BME280;31943;51.410;7.564;2023-05-20T03:18:40;100926.84;;;10.15;60.48
46223;BME280;31943;51.410;7.564;2023-05-20T03:21:06;100925.91;;;10.13;60.88
46223;BME280;31943;51.410;7.564;2023-05-20T03:23:33;100937.22;;;10.12;61.01
46223;BME280;31943;51.410;7.564;2023-05-20T03:25:59;100927.66;;;10.12;60.93
46223;BME280;31943;51.410;7.564;2023-05-20T03:28:24;100938.03;;;10.10;60.97
46223;BME280;31943;51.410;7.564;2023-05-20T03:30:50;100931.09;;;10.09;61.03
46223;BME280;31943;51.410;7.564;2023-05-20T03:33:15;100930.19;;;10.09;61.32
46223;BME280;31943;51.410;7.564;2023-05-20T03:35:41;100927.56;;;10.07;61.43
46223;BME280;31943;51.410;7.564;2023-05-20T03:38:07;100917.97;;;10.06;61.54
46223;BME280;31943;51.410;7.564;2023-05-20T03:40:34;100910.06;;;10.03;61.37
46223;BME280;31943;51.410;7.564;2023-05-20T03:42:59;100914.44;;;10.04;61.60
46223;BME280;31943;51.410;7.564;2023-05-20T03:45:25;100917.00;;;10.03;61.42
46223;BME280;31943;51.410;7.564;2023-05-20T03:47:50;100906.56;;;10.03;61.46
46223;BME280;31943;51.410;7.564;2023-05-20T03:50:16;100911.78;;;10.03;61.09
46223;BME280;31943;51.410;7.564;2023-05-20T03:52:42;100908.31;;;10.02;61.02
46223;BME280;31943;51.410;7.564;2023-05-20T03:55:08;100911.88;;;10.06;61.58
46223;BME280;31943;51.410;7.564;2023-05-20T03:57:35;100915.28;;;10.03;61.90
46223;BME280;31943;51.410;7.564;2023-05-20T04:00:01;100911.78;;;10.03;61.89
46223;BME280;31943;51.410;7.564;2023-05-20T04:02:26;100892.72;;;10.05;62.24
46223;BME280;31943;51.410;7.564;2023-05-20T04:04:52;100906.69;;;10.07;62.08
46223;BME280;31943;51.410;7.564;2023-05-20T04:07:18;100903.31;;;10.12;62.28
46223;BME280;31943;51.410;7.564;2023-05-20T04:09:43;100895.59;;;10.16;62.02
46223;BME280;31943;51.410;7.564;2023-05-20T04:12:09;100893.06;;;10.21;62.41
46223;BME280;31943;51.410;7.564;2023-05-20T04:14:36;100896.59;;;10.23;62.63
46223;BME280;31943;51.410;7.564;2023-05-20T04:17:02;100899.22;;;10.24;63.06
46223;BME280;31943;51.410;7.564;2023-05-20T04:19:28;100899.34;;;10.29;63.14
46223;BME280;31943;51.410;7.564;2023-05-20T04:21:53;100898.59;;;10.33;62.82
46223;BME280;31943;51.410;7.564;2023-05-20T04:24:19;100892.59;;;10.37;63.36
46223;BME280;31943;51.410;7.564;2023-05-20T04:26:44;100895.22;;;10.37;63.07
46223;BME280;31943;51.410;7.564;2023-05-20T04:29:10;100895.22;;;10.39;63.20
46223;BME280;31943;51.410;7.564;2023-05-20T04:31:37;100897.94;;;10.43;63.38
46223;BME280;31943;51.410;7.564;2023-05-20T04:34:02;100894.50;;;10.46;63.05
46223;BME280;31943;51.410;7.564;2023-05-20T04:36:29;100888.47;;;10.48;63.28
46223;BME280;31943;51.410;7.564;2023-05-20T04:38:55;100880.75;;;10.53;63.07
46223;BME280;31943;51.410;7.564;2023-05-20T04:41:21;100889.59;;;10.61;63.21
46223;BME280;31943;51.410;7.564;2023-05-20T04:43:47;100886.28;;;10.68;62.90
46223;BME280;31943;51.410;7.564;2023-05-20T04:46:12;100892.56;;;10.78;62.78
46223;BME280;31943;51.410;7.564;2023-05-20T04:48:39;100884.84;;;10.84;62.94
46223;BME280;31943;51.410;7.564;2023-05-20T04:51:05;100892.78;;;10.91;62.88
46223;BME280;31943;51.410;7.564;2023-05-20T04:53:30;100894.59;;;10.95;62.29
46223;BME280;31943;51.410;7.564;2023-05-20T04:55:56;100896.41;;;10.99;62.40
46223;BME280;31943;51.410;7.564;2023-05-20T04:58:22;100894.69;;;10.99;62.44
46223;BME280;31943;51.410;7.564;2023-05-20T05:00:47;100899.09;;;11.02;62.63
46223;BME280;31943;51.410;7.564;2023-05-20T05:03:13;100902.66;;;11.05;62.81
46223;BME280;31943;51.410;7.564;2023-05-20T05:05:40;100905.34;;;11.10;62.57
46223;BME280;31943;51.410;7.564;2023-05-20T05:08:05;100904.53;;;11.14;62.44
46223;BME280;31943;51.410;7.564;2023-05-20T05:10:31;100908.06;;;11.16;62.29
46223;BME280;31943;51.410;7.564;2023-05-20T05:12:57;100909.97;;;11.26;61.92
46223;BME280;31943;51.410;7.564;2023-05-20T05:15:23;100910.09;;;11.34;62.08
46223;BME280;31943;51.410;7.564;2023-05-20T05:17:48;100911.97;;;11.41;62.08
46223;BME280;31943;51.410;7.564;2023-05-20T05:20:14;100907.66;;;11.43;61.69
46223;BME280;31943;51.410;7.564;2023-05-20T05:22:41;100905.13;;;11.48;61.82
46223;BME280;31943;51.410;7.564;2023-05-20T05:25:09;100896.50;;;11.54;61.55
46223;BME280;31943;51.410;7.564;2023-05-20T05:27:35;100888.69;;;11.55;61.74
46223;BME280;31943;51.410;7.564;2023-05-20T05:30:00;100899.16;;;11.55;61.22
46223;BME280;31943;51.410;7.564;2023-05-20T05:32:26;100901.84;;;11.61;61.32
46223;BME280;31943;51.410;7.564;2023-05-20T05:34:51;100901.97;;;11.69;61.25
46223;BME280;31943;51.410;7.564;2023-05-20T05:37:18;100898.56;;;11.73;61.08
46223;BME280;31943;51.410;7.564;2023-05-20T05:39:45;100902.13;;;11.78;60.93
46223;BME280;31943;51.410;7.564;2023-05-20T05:42:10;100906.59;;;11.85;60.44
46223;BME280;31943;51.410;7.564;2023-05-20T05:44:36;100900.59;;;11.91;60.68
46223;BME280;31943;51.410;7.564;2023-05-20T05:47:01;100903.31;;;11.96;60.59
46223;BME280;31943;51.410;7.564;2023-05-20T05:49:27;100900.69;;;11.97;60.96
46223;BME280;31943;51.410;7.564;2023-05-20T05:51:53;100899.03;;;12.02;60.64
46223;BME280;31943;51.410;7.564;2023-05-20T05:54:18;100894.75;;;12.07;60.64
46223;BME280;31943;51.410;7.564;2023-05-20T05:56:45;100894.88;;;12.15;60.62
46223;BME280;31943;51.410;7.564;2023-05-20T05:59:11;100894.06;;;12.19;60.73
46223;BME280;31943;51.410;7.564;2023-05-20T06:01:36;100894.16;;;12.29;60.47
46223;BME280;31943;51.410;7.564;2023-05-20T06:04:02;100897.69;;;12.32;60.82
46223;BME280;31943;51.410;7.564;2023-05-20T06:06:28;100896.06;;;12.42;60.88
46223;BME280;31943;51.410;7.564;2023-05-20T06:08:54;100886.59;;;12.49;60.67
46223;BME280;31943;51.410;7.564;2023-05-20T06:11:19;100890.16;;;12.57;60.30
46223;BME280;31943;51.410;7.564;2023-05-20T06:13:46;100897.25;;;12.67;60.67
46223;BME280;31943;51.410;7.564;2023-05-20T06:16:12;100885.09;;;12.74;59.80
46223;BME280;31943;51.410;7.564;2023-05-20T06:18:38;100886.06;;;12.79;59.73
46223;BME280;31943;51.410;7.564;2023-05-20T06:21:04;100885.25;;;12.88;59.75
46223;BME280;31943;51.410;7.564;2023-05-20T06:23:29;100881.78;;;12.87;60.10
46223;BME280;31943;51.410;7.564;2023-05-20T06:25:57;100886.25;;;12.96;59.94
46223;BME280;31943;51.410;7.564;2023-05-20T06:28:22;100885.41;;;13.00;59.63
46223;BME280;31943;51.410;7.564;2023-05-20T06:30:50;100888.97;;;13.06;59.37
46223;BME280;31943;51.410;7.564;2023-05-20T06:33:16;100885.47;;;13.09;59.09
46223;BME280;31943;51.410;7.564;2023-05-20T06:35:41;100877.66;;;13.12;58.95
46223;BME280;31943;51.410;7.564;2023-05-20T06:38:07;100874.25;;;13.19;59.17
46223;BME280;31943;51.410;7.564;2023-05-20T06:40:32;100876.88;;;13.22;58.59
46223;BME280;31943;51.410;7.564;2023-05-20T06:42:58;100873.44;;;13.28;58.55
46223;BME280;31943;51.410;7.564;2023-05-20T06:45:23;100877.94;;;13.37;58.99
46223;BME280;31943;51.410;7.564;2023-05-20T06:47:50;100870.97;;;13.43;58.51
46223;BME280;31943;51.410;7.564;2023-05-20T06:50:16;100864.06;;;13.52;58.33
46223;BME280;31943;51.410;7.564;2023-05-20T06:52:41;100865.84;;;13.56;58.19
46223;BME280;31943;51.410;7.564;2023-05-20T06:55:08;100864.13;;;13.61;58.29
46223;BME280;31943;51.410;7.564;2023-05-20T06:57:34;100867.66;;;13.64;58.20
46223;BME280;31943;51.410;7.564;2023-05-20T07:00:00;100855.47;;;13.71;58.21
46223;BME280;31943;51.410;7.564;2023-05-20T07:02:25;100854.59;;;13.75;57.97
46223;BME280;31943;51.410;7.564;2023-05-20T07:04:53;100850.19;;;13.70;57.88
46223;BME280;31943;51.410;7.564;2023-05-20T07:07:18;100861.59;;;13.78;57.90
46223;BME280;31943;51.410;7.564;2023-05-20T07:09:44;100857.31;;;13.84;57.52
46223;BME280;31943;51.410;7.564;2023-05-20T07:12:10;100858.16;;;13.83;57.66
46223;BME280;31943;51.410;7.564;2023-05-20T07:14:35;100850.34;;;13.88;57.58
46223;BME280;31943;51.410;7.564;2023-05-20T07:17:01;100852.13;;;13.98;57.51
46223;BME280;31943;51.410;7.564;2023-05-20T07:19:26;100853.91;;;14.02;57.42
46223;BME280;31943;51.410;7.564;2023-05-20T07:21:53;100854.81;;;14.08;57.08
46223;BME280;31943;51.410;7.564;2023-05-20T07:24:19;100853.88;;;13.98;56.63
46223;BME280;31943;51.410;7.564;2023-05-20T07:26:45;100841.59;;;13.91;57.07
46223;BME280;31943;51.410;7.564;2023-05-20T07:29:10;100834.63;;;13.97;57.07
46223;BME280;31943;51.410;7.564;2023-05-20T07:31:36;100838.19;;;14.06;57.19
46223;BME280;31943;51.410;7.564;2023-05-20T07:34:01;100824.16;;;14.05;56.68
46223;BME280;31943;51.410;7.564;2023-05-20T07:36:27;100831.13;;;13.98;57.17
46223;BME280;31943;51.410;7.564;2023-05-20T07:38:55;100839.03;;;14.01;57.40
46223;BME280;31943;51.410;7.564;2023-05-20T07:41:20;100843.44;;;14.06;57.36
46223;BME280;31943;51.410;7.564;2023-05-20T07:43:46;100833.84;;;14.17;57.30
46223;BME280;31943;51.410;7.564;2023-05-20T07:46:12;100829.53;;;14.25;56.96
46223;BME280;31943;51.410;7.564;2023-05-20T07:48:37;100834.78;;;14.23;56.85
46223;BME280;31943;51.410;7.564;2023-05-20T07:51:03;100831.28;;;14.26;57.13
46223;BME280;31943;51.410;7.564;2023-05-20T07:53:28;100841.81;;;14.35;57.17
46223;BME280;31943;51.410;7.564;2023-05-20T07:55:55;100837.47;;;14.43;56.83
46223;BME280;31943;51.410;7.564;2023-05-20T07:58:21;100843.63;;;14.49;57.07
46223;BME280;31943;51.410;7.564;2023-05-20T08:00:47;100834.06;;;14.63;56.89
46223;BME280;31943;51.410;7.564;2023-05-20T08:03:13;100842.84;;;14.77;56.57
46223;BME280;31943;51.410;7.564;2023-05-20T08:05:39;100839.38;;;14.86;56.33
46223;BME280;31943;51.410;7.564;2023-05-20T08:08:05;100835.00;;;14.99;56.20
46223;BME280;31943;51.410;7.564;2023-05-20T08:10:31;100835.91;;;15.04;56.39
46223;BME280;31943;51.410;7.564;2023-05-20T08:12:58;100832.41;;;15.11;56.02
46223;BME280;31943;51.410;7.564;2023-05-20T08:15:23;100832.41;;;15.11;55.83
46223;BME280;31943;51.410;7.564;2023-05-20T08:17:49;100828.88;;;15.14;55.53
46223;BME280;31943;51.410;7.564;2023-05-20T08:20:15;100835.03;;;15.10;55.76
46223;BME280;31943;51.410;7.564;2023-05-20T08:22:40;100834.13;;;15.06;55.92
46223;BME280;31943;51.410;7.564;2023-05-20T08:25:07;100835.00;;;15.02;55.72
46223;BME280;31943;51.410;7.564;2023-05-20T08:27:33;100840.28;;;15.03;55.74
46223;BME280;31943;51.410;7.564;2023-05-20T08:30:00;100841.13;;;14.96;55.53
46223;BME280;31943;51.410;7.564;2023-05-20T08:32:26;100841.16;;;14.98;55.67
46223;BME280;31943;51.410;7.564;2023-05-20T08:34:51;100834.13;;;15.00;56.17
46223;BME280;31943;51.410;7.564;2023-05-20T08:37:17;100841.16;;;15.10;56.36
46223;BME280;31943;51.410;7.564;2023-05-20T08:39:43;100841.13;;;15.07;56.03
46223;BME280;31943;51.410;7.564;2023-05-20T08:42:08;100835.00;;;15.13;56.09
46223;BME280;31943;51.410;7.564;2023-05-20T08:44:34;100837.66;;;15.20;55.95
46223;BME280;31943;51.410;7.564;2023-05-20T08:47:04;100844.66;;;15.28;55.71
46223;BME280;31943;51.410;7.564;2023-05-20T08:49:30;100839.41;;;15.26;55.52
46223;BME280;31943;51.410;7.564;2023-05-20T08:51:56;100841.16;;;15.27;55.83
46223;BME280;31943;51.410;7.564;2023-05-20T08:54:24;100842.03;;;15.32;55.65
46223;BME280;31943;51.410;7.564;2023-05-20T08:56:51;100843.81;;;15.35;55.55
46223;BME280;31943;51.410;7.564;2023-05-20T08:59:17;100839.41;;;15.34;55.23
46223;BME280;31943;51.410;7.564;2023-05-20T09:01:43;100839.41;;;15.38;55.36
46223;BME280;31943;51.410;7.564;2023-05-20T09:04:10;100835.03;;;15.47;55.54
46223;BME280;31943;51.410;7.564;2023-05-20T09:06:42;100835.00;;;15.50;55.19
46223;BME280;31943;51.410;7.564;2023-05-20T09:09:09;100835.91;;;15.55;55.63
46223;BME280;31943;51.410;7.564;2023-05-20T09:11:35;100828.88;;;15.58;54.97
46223;BME280;31943;51.410;7.564;2023-05-20T09:14:00;100833.22;;;15.64;55.23
46223;BME280;31943;51.410;7.564;2023-05-20T09:16:26;100826.25;;;15.57;54.99
46223;BME280;31943;51.410;7.564;2023-05-20T09:18:54;100828.00;;;15.53;55.47
46223;BME280;31943;51.410;7.564;2023-05-20T09:21:25;100828.00;;;15.61;55.75
46223;BME280;31943;51.410;7.564;2023-05-20T09:23:51;100827.09;;;15.65;55.47
46223;BME280;31943;51.410;7.564;2023-05-20T09:26:16;100832.41;;;15.54;55.55
46223;BME280;31943;51.410;7.564;2023-05-20T09:28:42;100835.03;;;15.54;55.71
46223;BME280;31943;51.410;7.564;2023-05-20T09:31:08;100837.66;;;15.51;55.64
46223;BME280;31943;51.410;7.564;2023-05-20T09:33:33;100828.88;;;15.52;55.66
46223;BME280;31943;51.410;7.564;2023-05-20T09:36:02;100829.75;;;15.56;55.81
46223;BME280;31943;51.410;7.564;2023-05-20T09:38:33;100830.63;;;15.52;55.40
46223;BME280;31943;51.410;7.564;2023-05-20T09:40:59;100832.38;;;15.56;55.55
46223;BME280;31943;51.410;7.564;2023-05-20T09:43:25;100831.50;;;15.63;55.54
46223;BME280;31943;51.410;7.564;2023-05-20T09:45:51;100831.50;;;15.72;55.58
46223;BME280;31943;51.410;7.564;2023-05-20T09:48:17;100834.16;;;15.80;56.01
46223;BME280;31943;51.410;7.564;2023-05-20T09:50:42;100824.47;;;15.90;55.45
46223;BME280;31943;51.410;7.564;2023-05-20T09:53:09;100820.06;;;15.90;54.95
46223;BME280;31943;51.410;7.564;2023-05-20T09:55:37;100830.59;;;15.99;55.45
46223;BME280;31943;51.410;7.564;2023-05-20T09:58:02;100813.03;;;16.00;55.51
46223;BME280;31943;51.410;7.564;2023-05-20T10:00:28;100811.28;;;15.94;55.04
46223;BME280;31943;51.410;7.564;2023-05-20T10:02:54;100807.78;;;15.92;54.87
46223;BME280;31943;51.410;7.564;2023-05-20T10:05:22;100807.75;;;16.05;54.72
46223;BME280;31943;51.410;7.564;2023-05-20T10:08:11;100807.75;;;16.09;54.89
46223;BME280;31943;51.410;7.564;2023-05-20T10:10:46;100801.53;;;16.23;54.65
46223;BME280;31943;51.410;7.564;2023-05-20T10:13:18;100803.25;;;16.33;54.50
46223;BME280;31943;51.410;7.564;2023-05-20T10:15:54;100802.25;;;16.55;54.33
46223;BME280;31943;51.410;7.564;2023-05-20T10:18:37;100805.69;;;16.67;53.97
46223;BME280;31943;51.410;7.564;2023-05-20T10:21:14;100801.19;;;16.89;53.76
46223;BME280;31943;51.410;7.564;2023-05-20T10:23:40;100794.06;;;17.00;53.28
46223;BME280;31943;51.410;7.564;2023-05-20T10:26:07;100799.28;;;17.09;53.43
46223;BME280;31943;51.410;7.564;2023-05-20T10:28:35;100791.31;;;17.15;53.36
46223;BME280;31943;51.410;7.564;2023-05-20T10:31:02;100780.66;;;17.28;52.94
46223;BME280;31943;51.410;7.564;2023-05-20T10:33:28;100779.66;;;17.43;53.20
46223;BME280;31943;51.410;7.564;2023-05-20T10:35:57;100784.72;;;17.59;52.86
46223;BME280;31943;51.410;7.564;2023-05-20T10:38:23;100765.16;;;17.81;52.46
46223;BME280;31943;51.410;7.564;2023-05-20T10:40:50;100776.44;;;17.98;51.87
46223;BME280;31943;51.410;7.564;2023-05-20T10:43:26;100775.31;;;18.16;51.71
46223;BME280;31943;51.410;7.564;2023-05-20T10:45:53;100763.72;;;18.29;51.37
46223;BME280;31943;51.410;7.564;2023-05-20T10:48:21;100771.63;;;18.29;51.25
46223;BME280;31943;51.410;7.564;2023-05-20T10:50:49;100763.38;;;18.52;51.49
46223;BME280;31943;51.410;7.564;2023-05-20T10:53:14;100760.47;;;18.69;50.68
46223;BME280;31943;51.410;7.564;2023-05-20T10:55:47;100761.97;;;18.89;50.21
46223;BME280;31943;51.410;7.564;2023-05-20T10:58:14;100758.00;;;19.14;49.71
46223;BME280;31943;51.410;7.564;2023-05-20T11:00:42;100764.97;;;19.22;48.32
46223;BME280;31943;51.410;7.564;2023-05-20T11:03:09;100760.41;;;19.30;48.81
46223;BME280;31943;51.410;7.564;2023-05-20T11:05:35;100752.31;;;19.39;48.18
46223;BME280;31943;51.410;7.564;2023-05-20T11:08:08;100757.63;;;19.38;47.87
46223;BME280;31943;51.410;7.564;2023-05-20T11:10:34;100748.88;;;19.32;47.88
46223;BME280;31943;51.410;7.564;2023-05-20T11:13:02;100743.66;;;19.29;48.55
46223;BME280;31943;51.410;7.564;2023-05-20T11:15:28;100744.47;;;19.33;48.73
46223;BME280;31943;51.410;7.564;2023-05-20T11:17:56;100747.16;;;19.31;49.38
46223;BME280;31943;51.410;7.564;2023-05-20T11:20:22;100740.91;;;19.34;49.60
46223;BME280;31943;51.410;7.564;2023-05-20T11:22:48;100740.03;;;19.35;49.36
46223;BME280;31943;51.410;7.564;2023-05-20T11:25:15;100728.66;;;19.30;48.72
46223;BME280;31943;51.410;7.564;2023-05-20T11:27:41;100723.22;;;19.36;48.73
46223;BME280;31943;51.410;7.564;2023-05-20T11:30:08;100720.56;;;19.38;48.69
46223;BME280;31943;51.410;7.564;2023-05-20T11:32:34;100711.41;;;19.54;48.78
46223;BME280;31943;51.410;7.564;2023-05-20T11:35:01;100709.13;;;19.84;48.75
46223;BME280;31943;51.410;7.564;2023-05-20T11:37:27;100712.03;;;20.12;48.01
46223;BME280;31943;51.410;7.564;2023-05-20T11:40:03;100711.72;;;20.26;48.25
46223;BME280;31943;51.410;7.564;2023-05-20T11:42:28;100710.88;;;20.24;47.05
46223;BME280;31943;51.410;7.564;2023-05-20T11:44:54;100706.63;;;20.17;46.66
46223;BME280;31943;51.410;7.564;2023-05-20T11:47:23;100705.03;;;20.09;47.13
46223;BME280;31943;51.410;7.564;2023-05-20T11:49:49;100710.19;;;20.15;47.29
46223;BME280;31943;51.410;7.564;2023-05-20T11:52:17;100709.31;;;20.15;46.98
46223;BME280;31943;51.410;7.564;2023-05-20T11:54:43;100696.28;;;20.06;46.91
46223;BME280;31943;51.410;7.564;2023-05-20T11:57:10;100690.94;;;20.07;46.90
46223;BME280;31943;51.410;7.564;2023-05-20T11:59:36;100681.22;;;20.08;46.72
46223;BME280;31943;51.410;7.564;2023-05-20T12:02:01;100686.41;;;20.12;47.14
46223;BME280;31943;51.410;7.564;2023-05-20T12:04:29;100684.44;;;20.21;46.57
46223;BME280;31943;51.410;7.564;2023-05-20T12:06:54;100682.56;;;20.26;46.48
46223;BME280;31943;51.410;7.564;2023-05-20T12:09:21;100679.63;;;20.38;47.01
46223;BME280;31943;51.410;7.564;2023-05-20T12:11:48;100677.97;;;20.34;46.51
46223;BME280;31943;51.410;7.564;2023-05-20T12:14:14;100677.91;;;20.37;46.84
46223;BME280;31943;51.410;7.564;2023-05-20T12:16:39;100680.56;;;20.35;46.44
46223;BME280;31943;51.410;7.564;2023-05-20T12:19:05;100681.59;;;20.30;46.84
46223;BME280;31943;51.410;7.564;2023-05-20T12:21:31;100684.25;;;20.30;46.33
46223;BME280;31943;51.410;7.564;2023-05-20T12:23:57;100686.16;;;20.23;46.44
46223;BME280;31943;51.410;7.564;2023-05-20T12:26:26;100680.13;;;20.17;46.93
46223;BME280;31943;51.410;7.564;2023-05-20T12:28:52;100672.03;;;20.23;47.58
46223;BME280;31943;51.410;7.564;2023-05-20T12:31:18;100680.88;;;20.23;46.92
46223;BME280;31943;51.410;7.564;2023-05-20T12:33:43;100674.66;;;20.24;47.38
46223;BME280;31943;51.410;7.564;2023-05-20T12:36:09;100681.78;;;20.21;47.06
46223;BME280;31943;51.410;7.564;2023-05-20T12:38:35;100671.28;;;20.18;47.16
46223;BME280;31943;51.410;7.564;2023-05-20T12:41:01;100667.69;;;20.20;46.96
46223;BME280;31943;51.410;7.564;2023-05-20T12:43:29;100674.75;;;20.20;46.36
46223;BME280;31943;51.410;7.564;2023-05-20T12:45:58;100677.28;;;20.24;46.79